createdAt,value
2019-01-20T00:02:27.203Z,5.80
2019-01-20T00:05:34.107Z,4.97
2019-01-20T00:08:41.032Z,5.10
2019-01-20T00:11:47.640Z,6.23
2019-01-20T00:14:54.171Z,5.37
2019-01-20T00:18:01.179Z,5.80
2019-01-20T00:21:07.732Z,6.20
2019-01-20T00:24:14.203Z,5.33
2019-01-20T00:27:20.693Z,4.90
2019-01-20T00:30:28.270Z,4.90
2019-01-20T00:36:54.066Z,5.60
2019-01-20T00:40:00.646Z,5.20
2019-01-20T00:43:07.388Z,6.83
2019-01-20T00:46:13.709Z,6.07
2019-01-20T00:49:20.338Z,6.40
2019-01-20T00:52:26.524Z,5.57
2019-01-20T00:55:34.706Z,4.83
2019-01-20T00:58:41.565Z,4.50
2019-01-20T01:01:48.212Z,5.00
2019-01-20T01:04:54.912Z,5.60
2019-01-20T01:08:01.498Z,4.50
2019-01-20T01:11:07.866Z,4.80
2019-01-20T01:14:14.930Z,5.40
2019-01-20T01:17:21.565Z,5.57
2019-01-20T01:20:27.869Z,5.30
2019-01-20T01:23:34.245Z,5.30
2019-01-20T01:26:40.746Z,5.80
2019-01-20T01:29:47.517Z,6.20
2019-01-20T01:32:54.045Z,3.90
2019-01-20T01:36:00.451Z,4.60
2019-01-20T01:39:09.998Z,6.20
2019-01-20T01:42:17.398Z,6.33
2019-01-20T01:45:23.886Z,4.60
2019-01-20T01:48:30.197Z,4.37
2019-01-20T01:51:37.812Z,4.43
2019-01-20T01:54:43.973Z,3.50
2019-01-20T01:57:50.478Z,4.67
2019-01-20T02:00:56.984Z,5.00
2019-01-20T02:04:03.971Z,4.07
2019-01-20T02:07:10.660Z,5.97
2019-01-20T02:10:22.328Z,6.03
2019-01-20T02:13:28.922Z,6.80
2019-01-20T02:16:36.169Z,5.10
2019-01-20T02:19:42.744Z,4.40
2019-01-20T02:22:51.246Z,7.10
2019-01-20T02:25:57.553Z,5.87
2019-01-20T02:29:04.256Z,5.50
2019-01-20T02:32:10.741Z,4.27
2019-01-20T02:35:17.244Z,4.53
2019-01-20T02:38:24.955Z,5.17
2019-01-20T02:41:31.364Z,3.67
2019-01-20T02:44:37.998Z,3.33
2019-01-20T02:47:44.951Z,3.60
2019-01-20T02:50:51.252Z,3.40
2019-01-20T02:53:57.993Z,5.67
2019-01-20T02:57:04.553Z,3.80
2019-01-20T03:00:15.706Z,4.60
2019-01-20T03:03:22.315Z,4.67
2019-01-20T03:09:10.128Z,4.50
2019-01-20T03:12:17.050Z,5.60
2019-01-20T03:15:23.881Z,4.73
2019-01-20T03:18:30.193Z,5.00
2019-01-20T03:21:37.145Z,4.40
2019-01-20T03:24:44.093Z,4.37
2019-01-20T03:27:50.837Z,7.60
2019-01-20T03:30:57.237Z,11.33
2019-01-20T03:34:04.029Z,12.73
2019-01-20T03:37:10.335Z,5.03
2019-01-20T03:40:17.546Z,4.50
2019-01-20T03:43:24.160Z,4.60
2019-01-20T03:46:30.489Z,4.43
2019-01-20T03:49:37.232Z,4.50
2019-01-20T03:52:43.711Z,5.13
2019-01-20T03:55:50.577Z,8.37
2019-01-20T03:58:57.113Z,4.63
2019-01-20T04:02:03.838Z,5.07
2019-01-20T04:05:10.562Z,5.40
2019-01-20T04:08:16.974Z,5.20
2019-01-20T04:11:23.798Z,4.40
2019-01-20T04:14:30.228Z,7.00
2019-01-20T04:17:36.560Z,4.83
2019-01-20T04:20:43.174Z,5.33
2019-01-20T04:23:50.226Z,4.53
2019-01-20T04:26:56.722Z,3.40
2019-01-20T04:30:03.552Z,3.30
2019-01-20T04:33:10.105Z,4.27
2019-01-20T04:36:16.351Z,2.77
2019-01-20T04:39:23.474Z,3.00
2019-01-20T04:42:29.791Z,2.27
2019-01-20T04:45:36.461Z,3.70
2019-01-20T04:48:42.695Z,13.30
2019-01-20T04:51:49.613Z,10.17
2019-01-20T04:54:56.442Z,6.50
2019-01-20T04:58:02.965Z,6.97
2019-01-20T05:01:09.590Z,6.93
2019-01-20T05:04:16.339Z,9.27
2019-01-20T05:07:22.743Z,8.70
2019-01-20T05:10:29.508Z,7.90
2019-01-20T05:13:36.952Z,7.33
2019-01-20T05:16:43.427Z,6.60
2019-01-20T05:19:49.790Z,5.83
2019-01-20T05:22:56.668Z,4.03
2019-01-20T05:26:03.461Z,4.60
2019-01-20T05:29:10.358Z,4.40
2019-01-20T05:32:16.707Z,5.43
2019-01-20T05:35:23.752Z,4.17
2019-01-20T05:38:30.076Z,4.63
2019-01-20T05:41:37.471Z,3.67
2019-01-20T05:44:44.026Z,3.40
2019-01-20T05:47:50.534Z,3.60
2019-01-20T05:50:57.431Z,2.90
2019-01-20T05:54:03.813Z,3.30
2019-01-20T05:57:10.299Z,3.43
2019-01-20T06:00:22.281Z,4.00
2019-01-20T06:03:29.018Z,7.17
2019-01-20T06:06:35.975Z,6.00
2019-01-20T06:09:42.641Z,4.40
2019-01-20T06:12:53.893Z,5.27
2019-01-20T06:15:58.065Z,6.00
2019-01-20T06:19:04.528Z,5.83
2019-01-20T06:22:11.433Z,5.17
2019-01-20T06:25:17.890Z,4.23
2019-01-20T06:28:24.568Z,5.00
2019-01-20T06:31:31.118Z,5.80
2019-01-20T06:34:37.623Z,6.83
2019-01-20T06:37:44.339Z,10.20
2019-01-20T06:40:51.112Z,8.03
2019-01-20T06:43:57.866Z,9.80
2019-01-20T06:47:04.350Z,8.63
2019-01-20T06:50:12.853Z,7.73
2019-01-20T06:53:19.386Z,7.17
2019-01-20T06:56:26.023Z,5.40
2019-01-20T06:59:32.568Z,6.00
2019-01-20T07:02:39.217Z,6.10
2019-01-20T07:05:46.010Z,5.03
2019-01-20T07:08:52.958Z,5.20
2019-01-20T07:12:00.259Z,4.70
2019-01-20T07:15:11.363Z,4.60
2019-01-20T07:18:18.070Z,5.03
2019-01-20T07:21:24.523Z,5.00
2019-01-20T07:24:30.855Z,5.10
2019-01-20T07:27:37.430Z,7.13
2019-01-20T07:30:44.175Z,7.70
2019-01-20T07:33:50.386Z,6.73
2019-01-20T07:36:57.024Z,6.50
2019-01-20T07:40:04.051Z,6.17
2019-01-20T07:43:16.737Z,7.83
2019-01-20T07:46:19.343Z,9.73
2019-01-20T07:49:25.725Z,8.40
2019-01-20T07:52:32.407Z,8.93
2019-01-20T07:55:39.031Z,6.00
2019-01-20T07:58:45.868Z,5.53
2019-01-20T08:01:52.890Z,6.27
2019-01-20T08:04:59.866Z,6.60
2019-01-20T08:08:06.285Z,6.90
2019-01-20T08:11:12.850Z,6.63
2019-01-20T08:14:19.087Z,6.67
2019-01-20T08:17:25.861Z,6.60
2019-01-20T08:20:32.510Z,5.87
2019-01-20T08:23:39.501Z,6.93
2019-01-20T08:26:49.954Z,5.97
2019-01-20T08:29:56.507Z,7.10
2019-01-20T08:33:02.990Z,7.37
2019-01-20T08:36:09.187Z,7.00
2019-01-20T08:39:15.918Z,6.50
2019-01-20T08:42:22.490Z,7.60
2019-01-20T08:46:10.072Z,7.33
2019-01-20T08:49:16.963Z,7.30
2019-01-20T08:52:26.880Z,8.47
2019-01-20T08:55:33.262Z,7.60
2019-01-20T08:58:42.019Z,7.03
2019-01-20T09:01:49.474Z,6.83
2019-01-20T09:04:56.131Z,9.30
2019-01-20T09:08:02.613Z,6.90
2019-01-20T09:11:09.131Z,7.67
2019-01-20T09:14:17.210Z,18.27
2019-01-20T09:17:24.008Z,8.53
2019-01-20T09:20:30.665Z,12.57
2019-01-20T09:23:37.291Z,14.33
2019-01-20T09:26:44.044Z,11.90
2019-01-20T09:29:50.382Z,10.60
2019-01-20T09:32:57.413Z,13.20
2019-01-20T09:36:03.985Z,16.93
2019-01-20T09:39:15.364Z,17.77
2019-01-20T09:42:21.708Z,18.60
2019-01-20T09:45:31.094Z,12.67
2019-01-20T09:48:38.285Z,7.73
2019-01-20T09:51:48.175Z,9.17
2019-01-20T09:54:57.236Z,14.10
2019-01-20T09:58:03.767Z,13.23
2019-01-20T10:01:10.456Z,7.63
2019-01-20T10:04:16.922Z,6.23
2019-01-20T10:07:23.491Z,4.90
2019-01-20T10:10:30.293Z,6.20
2019-01-20T10:13:37.600Z,6.50
2019-01-20T10:16:44.384Z,5.30
2019-01-20T10:19:51.659Z,5.37
2019-01-20T10:22:58.968Z,4.60
2019-01-20T10:26:05.685Z,4.90
2019-01-20T10:29:12.996Z,6.10
2019-01-20T10:32:19.758Z,7.20
2019-01-20T10:35:37.224Z,7.50
2019-01-20T10:38:44.365Z,6.73
2019-01-20T10:41:51.352Z,7.30
2019-01-20T10:44:58.571Z,6.53
2019-01-20T10:48:05.897Z,5.43
2019-01-20T10:51:13.167Z,6.43
2019-01-20T10:54:20.344Z,8.00
2019-01-20T10:57:27.700Z,8.47
2019-01-20T11:00:40.032Z,7.30
2019-01-20T11:03:46.973Z,8.40
2019-01-20T11:06:54.325Z,5.80
2019-01-20T11:10:01.283Z,7.23
2019-01-20T11:13:13.995Z,6.07
2019-01-20T11:16:21.938Z,8.83
2019-01-20T11:19:28.500Z,7.63
2019-01-20T11:22:34.765Z,6.60
2019-01-20T11:25:43.747Z,7.63
2019-01-20T11:28:50.595Z,8.13
2019-01-20T11:31:57.746Z,6.20
2019-01-20T11:35:05.237Z,6.00
2019-01-20T11:38:11.712Z,8.07
2019-01-20T11:41:19.952Z,6.10
2019-01-20T11:44:26.954Z,6.17
2019-01-20T11:47:33.845Z,7.30
2019-01-20T11:50:40.539Z,6.63
2019-01-20T11:53:46.933Z,6.50
2019-01-20T11:56:54.244Z,6.70
2019-01-20T12:00:01.350Z,7.60
2019-01-20T12:03:09.221Z,6.53
2019-01-20T12:06:16.949Z,6.90
2019-01-20T12:09:23.799Z,6.30
2019-01-20T12:12:31.138Z,6.93
2019-01-20T12:15:38.086Z,6.40
2019-01-20T12:18:44.788Z,7.53
2019-01-20T12:21:51.962Z,7.10
2019-01-20T12:24:59.274Z,6.50
2019-01-20T12:28:06.263Z,7.03
2019-01-20T12:31:13.866Z,7.40
2019-01-20T12:34:20.444Z,7.47
2019-01-20T12:37:27.201Z,6.10
2019-01-20T12:40:40.251Z,8.10
2019-01-20T12:43:47.050Z,6.60
2019-01-20T12:46:54.101Z,7.83
2019-01-20T12:50:01.014Z,9.00
2019-01-20T12:53:08.070Z,8.20
2019-01-20T12:56:14.710Z,17.87
2019-01-20T12:59:21.454Z,13.00
2019-01-20T13:02:28.482Z,12.53
2019-01-20T13:05:35.310Z,17.80
2019-01-20T13:08:41.844Z,17.37
2019-01-20T13:11:49.062Z,16.70
2019-01-20T13:14:55.768Z,19.73
2019-01-20T13:18:03.016Z,11.17
2019-01-20T13:21:11.302Z,10.00
2019-01-20T13:24:17.963Z,9.80
2019-01-20T13:27:25.058Z,9.03
2019-01-20T13:30:31.822Z,9.50
2019-01-20T13:33:40.197Z,11.93
2019-01-20T13:36:47.020Z,9.37
2019-01-20T13:39:55.574Z,9.33
2019-01-20T13:43:03.711Z,12.37
2019-01-20T13:46:11.093Z,9.87
2019-01-20T13:49:18.982Z,8.73
2019-01-20T13:52:26.044Z,11.20
2019-01-20T13:55:33.891Z,12.23
2019-01-20T13:58:41.200Z,10.50
2019-01-20T14:01:49.487Z,11.40
2019-01-20T14:04:56.458Z,10.63
2019-01-20T14:08:03.352Z,10.00
2019-01-20T14:11:10.576Z,14.50
2019-01-20T14:14:19.017Z,12.07
2019-01-20T14:17:25.727Z,12.93
2019-01-20T14:20:33.144Z,11.93
2019-01-20T14:23:44.216Z,11.70
2019-01-20T14:26:51.471Z,12.87
2019-01-20T14:29:59.457Z,13.37
2019-01-20T14:33:07.611Z,12.90
2019-01-20T14:36:14.882Z,12.90
2019-01-20T14:39:22.287Z,14.60
2019-01-20T14:42:30.969Z,14.30
2019-01-20T14:45:38.437Z,15.97
2019-01-20T14:48:45.559Z,13.80
2019-01-20T14:51:56.701Z,13.70
2019-01-20T14:55:06.138Z,16.57
2019-01-20T14:58:14.077Z,15.60
2019-01-20T15:01:21.298Z,24.83
2019-01-20T15:04:28.468Z,16.97
2019-01-20T15:07:35.856Z,16.63
2019-01-20T15:10:43.908Z,15.23
2019-01-20T15:13:51.081Z,16.80
2019-01-20T15:16:57.783Z,19.00
2019-01-20T15:20:04.675Z,18.20
2019-01-20T15:23:11.607Z,21.90
2019-01-20T15:26:18.484Z,18.50
2019-01-20T15:29:25.026Z,17.03
2019-01-20T15:32:31.746Z,17.97
2019-01-20T15:35:38.793Z,17.10
2019-01-20T15:38:45.928Z,15.97
2019-01-20T15:41:53.110Z,15.43
2019-01-20T15:45:00.185Z,15.37
2019-01-20T15:48:07.184Z,16.47
2019-01-20T15:51:14.557Z,13.83
2019-01-20T15:54:21.478Z,15.97
2019-01-20T15:57:28.724Z,16.30
2019-01-20T16:00:35.609Z,15.70
2019-01-20T16:03:42.156Z,15.37
2019-01-20T16:06:49.642Z,16.07
2019-01-20T16:09:56.642Z,15.17
2019-01-20T16:13:04.369Z,15.83
2019-01-20T16:16:11.345Z,14.10
2019-01-20T16:19:18.217Z,16.90
2019-01-20T16:22:24.709Z,15.30
2019-01-20T16:25:34.888Z,17.30
2019-01-20T16:28:42.571Z,17.67
2019-01-20T16:31:49.603Z,20.20
2019-01-20T16:34:56.881Z,20.57
2019-01-20T16:38:06.277Z,19.07
2019-01-20T16:41:13.553Z,19.30
2019-01-20T16:44:20.463Z,21.60
2019-01-20T16:47:27.784Z,20.03
2019-01-20T16:50:35.115Z,16.43
2019-01-20T16:53:41.852Z,14.37
2019-01-20T16:56:49.455Z,16.63
2019-01-20T16:59:56.342Z,16.53
2019-01-20T17:03:03.130Z,16.47
2019-01-20T17:06:10.413Z,15.33
2019-01-20T17:09:17.104Z,16.27
2019-01-20T17:12:25.388Z,16.10
2019-01-20T17:15:39.473Z,15.50
2019-01-20T17:18:44.008Z,16.83
2019-01-20T17:21:51.149Z,19.20
2019-01-20T17:24:58.586Z,17.37
2019-01-20T17:28:05.790Z,19.10
2019-01-20T17:31:12.888Z,17.40
2019-01-20T17:34:20.156Z,16.60
2019-01-20T17:37:26.739Z,19.57
2019-01-20T17:40:33.838Z,20.47
2019-01-20T17:43:42.022Z,19.23
2019-01-20T17:46:49.083Z,17.70
2019-01-20T17:49:55.896Z,18.37
2019-01-20T17:53:06.838Z,17.07
2019-01-20T17:56:14.698Z,18.53
2019-01-20T17:59:22.458Z,18.27
2019-01-20T18:02:29.275Z,17.63
2019-01-20T18:05:36.960Z,16.80
2019-01-20T18:08:43.655Z,19.80
2019-01-20T18:11:51.049Z,18.87
2019-01-20T18:14:58.265Z,21.37
2019-01-20T18:18:05.721Z,19.63
2019-01-20T18:21:12.310Z,19.70
2019-01-20T18:24:19.202Z,20.67
2019-01-20T18:27:25.695Z,18.07
2019-01-20T18:30:33.766Z,19.10
2019-01-20T18:33:40.990Z,18.50
2019-01-20T18:36:47.682Z,17.80
2019-01-20T18:39:54.583Z,17.93
2019-01-20T18:43:01.183Z,28.40
2019-01-20T18:46:07.905Z,22.13
2019-01-20T18:49:14.506Z,21.80
2019-01-20T18:52:21.130Z,24.40
2019-01-20T18:55:27.829Z,22.07
2019-01-20T18:58:34.447Z,19.67
2019-01-20T19:01:41.613Z,19.53
2019-01-20T19:04:48.117Z,20.20
2019-01-20T19:07:55.614Z,18.97
2019-01-20T19:11:02.291Z,20.33
2019-01-20T19:14:09.477Z,21.60
2019-01-20T19:17:16.338Z,18.80
2019-01-20T19:20:24.225Z,21.03
2019-01-20T19:23:32.444Z,19.90
2019-01-20T19:26:39.709Z,22.67
2019-01-20T19:29:46.344Z,20.57
2019-01-20T19:32:52.849Z,21.63
2019-01-20T19:36:00.142Z,26.03
2019-01-20T19:39:08.618Z,23.60
2019-01-20T19:42:15.261Z,22.60
2019-01-20T19:45:22.124Z,22.67
2019-01-20T19:48:28.966Z,22.80
2019-01-20T19:51:36.519Z,25.47
2019-01-20T19:54:44.060Z,22.60
2019-01-20T19:57:50.593Z,22.97
2019-01-20T20:00:57.616Z,20.90
2019-01-20T20:04:04.529Z,22.67
2019-01-20T20:07:11.605Z,21.23
2019-01-20T20:10:20.423Z,27.27
2019-01-20T20:13:28.593Z,30.63
2019-01-20T20:16:36.345Z,24.53
2019-01-20T20:19:43.411Z,22.80
2019-01-20T20:22:50.494Z,25.83
2019-01-20T20:25:57.340Z,21.43
2019-01-20T20:29:05.005Z,18.97
2019-01-20T20:32:12.251Z,20.20
2019-01-20T20:35:18.674Z,20.67
2019-01-20T20:38:25.227Z,20.13
2019-01-20T20:41:32.226Z,20.80
2019-01-20T20:44:39.385Z,21.53
2019-01-20T20:47:46.004Z,20.80
2019-01-20T20:50:52.781Z,18.10
2019-01-20T20:53:59.760Z,17.67
2019-01-20T20:57:06.708Z,18.93
2019-01-20T21:00:23.450Z,18.77
2019-01-20T21:03:33.164Z,19.40
2019-01-20T21:06:42.171Z,18.00
2019-01-20T21:09:56.301Z,18.30
2019-01-20T21:12:59.049Z,19.60
2019-01-20T21:16:05.965Z,18.33
2019-01-20T21:19:13.553Z,18.50
2019-01-20T21:22:20.413Z,19.77
2019-01-20T21:25:27.318Z,19.80
2019-01-20T21:28:34.368Z,21.37
2019-01-20T21:31:41.383Z,19.70
2019-01-20T21:34:47.712Z,18.00
2019-01-20T21:37:54.380Z,20.93
2019-01-20T21:41:01.233Z,21.70
2019-01-20T21:44:08.233Z,22.13
2019-01-20T21:47:15.300Z,25.03
2019-01-20T21:50:25.021Z,22.10
2019-01-20T21:53:32.113Z,15.07
2019-01-20T21:56:39.054Z,14.97
2019-01-20T21:59:45.892Z,17.27
2019-01-20T22:02:52.919Z,16.90
2019-01-20T22:05:59.851Z,15.80
2019-01-20T22:09:09.335Z,15.40
2019-01-20T22:12:16.660Z,14.87
2019-01-20T22:15:23.710Z,14.30
2019-01-20T22:18:30.319Z,16.40
2019-01-20T22:21:38.188Z,14.63
2019-01-20T22:24:45.160Z,13.90
2019-01-20T22:27:52.108Z,12.07
2019-01-20T22:30:58.578Z,14.60
2019-01-20T22:34:05.109Z,15.27
2019-01-20T22:37:11.349Z,14.03
2019-01-20T22:40:18.245Z,15.07
2019-01-20T22:43:24.572Z,13.03
2019-01-20T22:46:31.037Z,13.80
2019-01-20T22:49:38.014Z,13.90
2019-01-20T22:52:44.355Z,12.77
2019-01-20T22:55:51.443Z,13.67
2019-01-20T22:58:58.074Z,14.10
2019-01-20T23:02:04.953Z,11.93
2019-01-20T23:05:11.569Z,13.17
2019-01-20T23:08:20.859Z,12.80
2019-01-20T23:11:27.717Z,12.40
2019-01-20T23:14:36.451Z,11.50
2019-01-20T23:17:43.041Z,13.33
2019-01-20T23:20:49.547Z,12.57
2019-01-20T23:23:56.744Z,12.00
2019-01-20T23:27:03.816Z,10.50
2019-01-20T23:30:11.665Z,11.23
2019-01-20T23:33:18.366Z,10.20
2019-01-20T23:36:25.010Z,11.47
2019-01-20T23:39:32.033Z,10.40
2019-01-20T23:42:38.755Z,9.87
2019-01-20T23:45:45.542Z,10.93
2019-01-20T23:48:52.751Z,10.00
2019-01-20T23:52:00.888Z,10.90
2019-01-20T23:55:08.697Z,9.73
2019-01-20T23:58:15.268Z,10.97
